Accueil
METAR-TAF:

METAR-TAF

Aéroports :

Ciudad Obregón, Mexique

latitude: 27-24N, longitude: 109-50W, altitude: 62 m

Observation

Le bulletin a été fait il y a 1 heure et 3 minutes, à 20:40 UTC
Vent 10 kt de ouest
Température 23°C
Humidité 13%
Pression 1013 hPa
Visibilité: 16.1 km
Ciel clair

METAR: MMCN 222040Z 28010KT 10SM SKC 23/M07 A2992 RMK SLP132 HZY

Heure: 14:43 (21:43 UTC)

Prévision

Le bulletin a été fait il y a 4 heures et 58 minutes, à 16:45 UTC
Prévision valable du 22 à 18 UTC au 23 à 18 UTC
Vent 15 kt de nord-ouest
Visibilité: 10 km
Ciel clair
A partir de 23 à 0400 UTC
Vent 10 kt de nord-ouest
Visibilité: 10 km
Ciel clair
A partir de 23 à 1600 UTC
Vent 8 kt de nord
Visibilité: 10 km
Ciel clair

TAF: MMCN 221645Z 2218/2318 31015KT P6SM SKC FM230400 32010KT P6SM SKC FM231600 35008KT P6SM SKC

Observations et prévisions météorologiques de plus de 4000 aéroports (messages METAR et TAF).

Les stations disponibles sont représentées par des disques jaunes et rouges sur la carte.

Passer la souris dessus pour voir le nom de la station.

Cliquer dessus pour voir les observations et prévisions météorologiques.

Pour changer de carte: cliquez sur les boutons verts avec une croix noire pour zoomer, sur le bouton vert avec un tiret pour effectuer un zoom arrière, ou sur les flèches vertes pour les cartes adjacentes.


METAR-TAF: